createdAt,value
2019-06-01T00:00:10.869Z,4.87
2019-06-01T00:02:31.947Z,4.28
2019-06-01T00:05:04.090Z,3.67
2019-06-01T00:07:35.815Z,4.83
2019-06-01T00:10:09.931Z,3.20
2019-06-01T00:12:43.264Z,3.98
2019-06-01T00:15:16.070Z,4.12
2019-06-01T00:17:48.033Z,4.78
2019-06-01T00:20:20.157Z,4.05
2019-06-01T00:22:52.541Z,4.30
2019-06-01T00:25:24.888Z,4.25
2019-06-01T00:27:57.248Z,4.08
2019-06-01T00:30:29.885Z,4.30
2019-06-01T00:33:01.813Z,4.30
2019-06-01T00:35:34.399Z,4.35
2019-06-01T00:38:07.564Z,3.83
2019-06-01T00:40:40.118Z,4.83
2019-06-01T00:43:12.468Z,4.05
2019-06-01T00:45:46.250Z,5.45
2019-06-01T00:48:18.976Z,4.83
2019-06-01T00:50:51.086Z,4.15
2019-06-01T00:53:23.134Z,4.53
2019-06-01T00:55:55.790Z,5.00
2019-06-01T00:58:27.770Z,5.08
2019-06-01T01:00:59.773Z,5.20
2019-06-01T01:03:32.099Z,10.98
2019-06-01T01:06:04.554Z,6.58
2019-06-01T01:08:36.431Z,5.95
2019-06-01T01:11:08.847Z,3.85
2019-06-01T01:13:41.197Z,5.10
2019-06-01T01:16:13.128Z,4.17
2019-06-01T01:18:45.679Z,3.95
2019-06-01T01:21:17.677Z,11.38
2019-06-01T01:23:50.318Z,7.03
2019-06-01T01:26:22.958Z,6.20
2019-06-01T01:28:55.204Z,4.70
2019-06-01T01:31:27.453Z,4.70
2019-06-01T01:33:59.994Z,3.02
2019-06-01T01:36:32.161Z,4.00
2019-06-01T01:39:04.482Z,3.85
2019-06-01T01:41:37.551Z,3.45
2019-06-01T01:44:09.553Z,4.05
2019-06-01T01:46:41.761Z,3.85
2019-06-01T01:49:13.881Z,4.15
2019-06-01T01:51:46.145Z,3.47
2019-06-01T01:54:18.206Z,4.05
2019-06-01T01:56:52.002Z,3.72
2019-06-01T01:59:24.344Z,3.45
2019-06-01T02:01:56.684Z,3.58
2019-06-01T02:04:28.642Z,9.70
2019-06-01T02:07:02.296Z,6.85
2019-06-01T02:09:34.780Z,7.30
2019-06-01T02:12:06.812Z,4.67
2019-06-01T02:14:38.801Z,4.12
2019-06-01T02:17:11.151Z,5.20
2019-06-01T02:19:43.296Z,3.72
2019-06-01T02:22:15.697Z,3.77
2019-06-01T02:24:47.912Z,4.25
2019-06-01T02:27:20.011Z,3.92
2019-06-01T02:29:55.251Z,4.80
2019-06-01T02:32:27.443Z,5.58
2019-06-01T02:35:00.305Z,3.47
2019-06-01T02:37:32.502Z,4.08
2019-06-01T02:40:05.681Z,3.17
2019-06-01T02:42:38.718Z,4.62
2019-06-01T02:45:13.578Z,3.80
2019-06-01T02:47:49.380Z,3.47
2019-06-01T02:50:22.243Z,3.08
2019-06-01T02:52:55.520Z,3.92
2019-06-01T02:55:29.449Z,3.00
2019-06-01T02:58:02.455Z,3.65
2019-06-01T03:00:37.981Z,2.87
2019-06-01T03:03:13.893Z,3.02
2019-06-01T03:05:47.459Z,2.85
2019-06-01T03:08:22.242Z,2.72
2019-06-01T03:10:57.585Z,3.62
2019-06-01T03:13:50.375Z,3.30
2019-06-01T03:16:26.053Z,2.72
2019-06-01T03:19:02.041Z,3.58
2019-06-01T03:21:35.056Z,2.70
2019-06-01T03:24:17.552Z,2.60
2019-06-01T03:27:09.842Z,3.00
2019-06-01T03:29:45.363Z,4.17
2019-06-01T03:32:34.336Z,2.50
2019-06-01T03:34:51.443Z,3.10
2019-06-01T03:37:23.749Z,2.67
2019-06-01T03:40:23.541Z,3.62
2019-06-01T03:42:49.993Z,2.45
2019-06-01T03:45:22.721Z,3.70
2019-06-01T03:47:54.831Z,2.40
2019-06-01T03:50:28.343Z,2.37
2019-06-01T03:53:06.248Z,2.65
2019-06-01T03:55:42.027Z,2.50
2019-06-01T03:58:16.592Z,2.70
2019-06-01T04:00:51.065Z,2.27
2019-06-01T04:03:23.286Z,2.90
2019-06-01T04:05:56.485Z,3.47
2019-06-01T04:08:28.540Z,2.25
2019-06-01T04:11:01.397Z,3.08
2019-06-01T04:13:33.906Z,2.22
2019-06-01T04:16:24.806Z,3.45
2019-06-01T04:18:57.951Z,2.67
2019-06-01T04:21:30.264Z,3.27
2019-06-01T04:24:02.183Z,1.98
2019-06-01T04:26:34.770Z,1.87
2019-06-01T04:29:08.305Z,4.05
2019-06-01T04:31:41.076Z,2.00
2019-06-01T04:34:13.407Z,2.22
2019-06-01T04:36:45.883Z,2.17
2019-06-01T04:39:18.297Z,1.70
2019-06-01T04:41:50.558Z,2.25
2019-06-01T04:44:22.693Z,2.25
2019-06-01T04:46:55.094Z,3.05
2019-06-01T04:49:27.412Z,1.32
2019-06-01T04:51:59.450Z,2.25
2019-06-01T04:54:31.496Z,1.22
2019-06-01T04:57:04.759Z,2.42
2019-06-01T04:59:37.885Z,1.80
2019-06-01T05:02:11.584Z,2.42
2019-06-01T05:04:44.229Z,2.30
2019-06-01T05:07:17.249Z,2.12
2019-06-01T05:09:49.146Z,2.05
2019-06-01T05:12:41.262Z,2.55
2019-06-01T05:15:16.150Z,1.70
2019-06-01T05:17:48.554Z,1.98
2019-06-01T05:20:21.388Z,1.75
2019-06-01T05:22:56.072Z,2.95
2019-06-01T05:25:28.093Z,1.62
2019-06-01T05:28:00.139Z,1.50
2019-06-01T05:30:32.243Z,1.07
2019-06-01T05:33:18.543Z,1.22
2019-06-01T05:35:58.243Z,1.75
2019-06-01T05:38:30.304Z,1.85
2019-06-01T05:41:02.424Z,1.67
2019-06-01T05:43:34.751Z,1.62
2019-06-01T05:46:07.295Z,1.67
2019-06-01T05:48:58.211Z,1.77
2019-06-01T05:51:30.739Z,1.62
2019-06-01T05:54:02.584Z,2.00
2019-06-01T05:56:34.839Z,1.07
2019-06-01T05:59:10.397Z,1.20
2019-06-01T06:02:02.650Z,0.78
2019-06-01T06:04:35.197Z,0.98
2019-06-01T06:07:08.021Z,2.58
2019-06-01T06:09:40.182Z,0.88
2019-06-01T06:12:13.178Z,0.80
2019-06-01T06:14:45.295Z,0.90
2019-06-01T06:17:19.843Z,0.70
2019-06-01T06:19:52.100Z,1.55
2019-06-01T06:22:24.292Z,1.47
2019-06-01T06:24:56.447Z,0.85
2019-06-01T06:27:28.310Z,1.00
2019-06-01T06:30:00.296Z,0.85
2019-06-01T06:32:32.487Z,2.42
2019-06-01T06:35:05.436Z,0.65
2019-06-01T06:37:38.011Z,1.10
2019-06-01T06:40:30.090Z,1.00
2019-06-01T06:43:02.270Z,1.27
2019-06-01T06:45:34.307Z,1.75
2019-06-01T06:48:07.355Z,1.17
2019-06-01T06:50:39.381Z,1.05
2019-06-01T06:53:24.528Z,1.00
2019-06-01T06:56:04.847Z,1.47
2019-06-01T06:58:37.823Z,1.02
2019-06-01T07:01:12.033Z,1.15
2019-06-01T07:03:43.398Z,1.05
2019-06-01T07:06:15.805Z,0.98
2019-06-01T07:08:48.893Z,0.70
2019-06-01T07:11:21.262Z,0.47
2019-06-01T07:13:53.541Z,0.90
2019-06-01T07:16:25.696Z,0.90
2019-06-01T07:18:57.741Z,1.10
2019-06-01T07:21:30.047Z,0.68
2019-06-01T07:24:02.321Z,0.90
2019-06-01T07:26:34.766Z,0.68
2019-06-01T07:29:07.271Z,0.60
2019-06-01T07:31:39.180Z,0.60
2019-06-01T07:34:27.088Z,0.40
2019-06-01T07:36:45.441Z,0.72
2019-06-01T07:39:17.782Z,0.53
2019-06-01T07:41:50.061Z,0.78
2019-06-01T07:44:22.774Z,0.70
2019-06-01T07:46:55.245Z,0.50
2019-06-01T07:49:27.348Z,0.82
2019-06-01T07:52:11.766Z,0.80
2019-06-01T07:54:33.599Z,0.80
2019-06-01T07:57:12.433Z,1.57
2019-06-01T07:59:45.593Z,3.37
2019-06-01T08:02:29.406Z,1.07
2019-06-01T08:05:00.428Z,1.22
2019-06-01T08:07:32.613Z,1.05
2019-06-01T08:10:24.878Z,2.75
2019-06-01T08:12:59.142Z,1.10
2019-06-01T08:15:31.878Z,1.12
2019-06-01T08:18:04.081Z,2.25
2019-06-01T08:20:36.044Z,1.85
2019-06-01T08:23:08.555Z,3.00
2019-06-01T08:25:40.514Z,2.20
2019-06-01T08:28:12.936Z,0.70
2019-06-01T08:30:45.622Z,1.45
2019-06-01T08:33:17.859Z,1.70
2019-06-01T08:36:08.976Z,0.80
2019-06-01T08:38:41.420Z,2.40
2019-06-01T08:41:13.635Z,0.75
2019-06-01T08:43:45.954Z,1.40
2019-06-01T08:46:18.192Z,1.00
2019-06-01T08:48:50.440Z,0.82
2019-06-01T08:51:23.972Z,1.87
2019-06-01T08:53:56.338Z,1.65
2019-06-01T08:56:30.187Z,2.20
2019-06-01T08:59:02.518Z,2.30
2019-06-01T09:01:35.108Z,2.42
2019-06-01T09:04:07.268Z,1.32
2019-06-01T09:06:39.180Z,1.70
2019-06-01T09:09:12.212Z,1.30
2019-06-01T09:11:44.177Z,1.35
2019-06-01T09:14:16.620Z,4.60
2019-06-01T09:16:48.810Z,2.80
2019-06-01T09:19:21.011Z,3.60
2019-06-01T09:21:53.671Z,3.25
2019-06-01T09:24:27.675Z,3.30
2019-06-01T09:26:59.819Z,3.42
2019-06-01T09:29:32.142Z,3.08
2019-06-01T09:32:04.284Z,3.75
2019-06-01T09:34:36.712Z,3.08
2019-06-01T09:37:08.770Z,4.62
2019-06-01T09:39:42.044Z,3.77
2019-06-01T09:42:14.217Z,2.98
2019-06-01T09:44:46.738Z,3.85
2019-06-01T09:47:18.640Z,3.92
2019-06-01T09:49:50.899Z,4.00
2019-06-01T09:52:23.100Z,4.47
2019-06-01T09:54:55.218Z,4.50
2019-06-01T09:57:27.663Z,6.47
2019-06-01T09:59:59.743Z,3.67
2019-06-01T10:02:32.166Z,5.42
2019-06-01T10:05:04.522Z,5.40
2019-06-01T10:07:37.088Z,3.80
2019-06-01T10:10:29.905Z,4.35
2019-06-01T10:13:08.119Z,4.50
2019-06-01T10:18:32.786Z,4.00
2019-06-01T10:21:24.967Z,4.15
2019-06-01T10:23:57.139Z,4.70
2019-06-01T10:26:29.096Z,6.12
2019-06-01T10:29:01.540Z,6.37
2019-06-01T10:31:34.674Z,5.30
2019-06-01T10:34:07.198Z,5.25
2019-06-01T10:36:59.084Z,5.20
2019-06-01T10:39:32.999Z,5.03
2019-06-01T10:42:05.294Z,4.50
2019-06-01T10:44:41.711Z,4.97
2019-06-01T10:47:11.593Z,5.53
2019-06-01T10:49:44.011Z,4.62
2019-06-01T10:52:16.099Z,4.95
2019-06-01T10:55:08.860Z,21.12
2019-06-01T10:58:00.952Z,6.58
2019-06-01T11:00:39.921Z,5.03
2019-06-01T11:03:07.148Z,5.00
2019-06-01T11:05:39.423Z,4.50
2019-06-01T11:08:11.394Z,6.22
2019-06-01T11:11:03.679Z,5.05
2019-06-01T11:13:37.141Z,6.53
2019-06-01T11:16:09.333Z,6.45
2019-06-01T11:18:41.890Z,6.15
2019-06-01T11:21:14.270Z,8.08
2019-06-01T11:23:46.802Z,6.80
2019-06-01T11:26:19.025Z,6.40
2019-06-01T11:28:51.119Z,13.55
2019-06-01T11:31:23.274Z,5.20
2019-06-01T11:33:55.472Z,5.10
2019-06-01T11:36:28.190Z,4.37
2019-06-01T11:39:00.239Z,4.00
2019-06-01T11:41:32.316Z,4.58
2019-06-01T11:44:04.779Z,3.83
2019-06-01T11:46:37.337Z,3.45
2019-06-01T11:49:09.914Z,4.25
2019-06-01T11:51:43.358Z,3.60
2019-06-01T11:54:15.425Z,3.87
2019-06-01T11:56:47.653Z,3.87
2019-06-01T11:59:21.348Z,2.65
2019-06-01T12:01:53.631Z,3.37
2019-06-01T12:04:25.659Z,2.95
2019-06-01T12:07:17.088Z,5.03
2019-06-01T12:09:35.769Z,3.80
2019-06-01T12:12:08.651Z,5.17
2019-06-01T12:14:40.769Z,3.05
2019-06-01T12:17:12.756Z,3.17
2019-06-01T12:19:46.798Z,3.02
2019-06-01T12:22:18.901Z,2.77
2019-06-01T12:24:51.190Z,3.12
2019-06-01T12:27:23.112Z,2.62
2019-06-01T12:29:55.058Z,2.42
2019-06-01T12:32:27.156Z,2.08
2019-06-01T12:35:03.051Z,2.50
2019-06-01T12:38:05.677Z,2.45
2019-06-01T12:40:26.694Z,2.50
2019-06-01T12:42:59.225Z,2.12
2019-06-01T12:45:31.680Z,1.82
2019-06-01T12:48:08.223Z,2.50
2019-06-01T12:50:42.069Z,2.12
2019-06-01T12:53:14.597Z,2.25
2019-06-01T12:55:47.129Z,2.90
2019-06-01T12:58:19.063Z,5.72
2019-06-01T13:00:52.512Z,4.03
2019-06-01T13:03:24.376Z,2.35
2019-06-01T13:05:56.627Z,2.50
2019-06-01T13:08:29.028Z,3.12
2019-06-01T13:11:00.953Z,1.67
2019-06-01T13:13:33.182Z,3.08
2019-06-01T13:16:05.582Z,3.55
2019-06-01T13:18:37.619Z,2.55
2019-06-01T13:21:09.805Z,3.22
2019-06-01T13:23:41.956Z,2.60
2019-06-01T13:26:13.985Z,2.58
2019-06-01T13:28:48.374Z,3.05
2019-06-01T13:31:20.282Z,2.75
2019-06-01T13:33:53.707Z,2.52
2019-06-01T13:36:26.449Z,3.15
2019-06-01T13:38:58.251Z,2.52
2019-06-01T13:41:31.792Z,3.40
2019-06-01T13:44:04.248Z,2.95
2019-06-01T13:46:36.497Z,2.62
2019-06-01T13:49:08.620Z,2.80
2019-06-01T13:51:41.314Z,3.67
2019-06-01T13:54:13.450Z,4.37
2019-06-01T13:56:46.770Z,4.08
2019-06-01T13:59:19.288Z,4.95
2019-06-01T14:01:53.024Z,3.60
2019-06-01T14:04:52.046Z,3.62
2019-06-01T14:07:24.565Z,3.42
2019-06-01T14:09:56.936Z,3.12
2019-06-01T14:12:28.979Z,2.87
2019-06-01T14:15:01.300Z,3.58
2019-06-01T14:17:34.480Z,3.40
2019-06-01T14:20:08.392Z,3.05
2019-06-01T14:22:40.434Z,3.87
2019-06-01T14:25:14.883Z,2.77
2019-06-01T14:27:48.177Z,3.35
2019-06-01T14:30:24.005Z,2.35
2019-06-01T14:32:55.108Z,2.60
2019-06-01T14:35:27.810Z,2.67
2019-06-01T14:38:00.264Z,2.60
2019-06-01T14:40:32.479Z,2.42
2019-06-01T14:43:05.875Z,2.30
2019-06-01T14:45:38.453Z,2.17
2019-06-01T14:48:10.715Z,0.95
2019-06-01T14:50:43.595Z,0.98
2019-06-01T14:53:15.650Z,0.95
2019-06-01T14:55:47.773Z,1.35
2019-06-01T14:58:20.049Z,1.47
2019-06-01T15:01:11.009Z,1.98
2019-06-01T15:03:56.621Z,0.98
2019-06-01T15:06:28.881Z,1.42
2019-06-01T15:09:15.861Z,1.80
2019-06-01T15:11:35.528Z,0.45
2019-06-01T15:14:07.630Z,1.40
2019-06-01T15:16:39.575Z,1.62
2019-06-01T15:19:12.087Z,0.95
2019-06-01T15:21:44.103Z,1.25
2019-06-01T15:24:16.366Z,1.82
2019-06-01T15:26:50.176Z,2.00
2019-06-01T15:29:22.794Z,1.85
2019-06-01T15:32:14.077Z,2.42
2019-06-01T15:34:46.112Z,2.33
2019-06-01T15:37:18.040Z,2.67
2019-06-01T15:39:50.571Z,2.27
2019-06-01T15:42:22.763Z,2.17
2019-06-01T15:44:55.079Z,1.42
2019-06-01T15:47:27.458Z,1.67
2019-06-01T15:50:19.761Z,1.77
2019-06-01T15:52:55.270Z,2.42
2019-06-01T15:55:27.959Z,5.70
2019-06-01T15:58:04.788Z,2.08
2019-06-01T16:00:36.891Z,1.25
2019-06-01T16:03:09.066Z,1.80
2019-06-01T16:05:41.634Z,2.15
2019-06-01T16:08:32.445Z,2.02
2019-06-01T16:11:06.617Z,1.82
2019-06-01T16:13:39.085Z,1.85
2019-06-01T16:16:11.450Z,1.60
2019-06-01T16:18:43.295Z,1.40
2019-06-01T16:21:15.109Z,1.35
2019-06-01T16:23:50.318Z,2.83
2019-06-01T16:26:20.869Z,2.08
2019-06-01T16:28:54.376Z,1.52
2019-06-01T16:31:26.538Z,2.20
2019-06-01T16:33:58.782Z,2.50
2019-06-01T16:36:30.853Z,2.45
2019-06-01T16:39:06.121Z,2.50
2019-06-01T16:41:36.885Z,2.70
2019-06-01T16:44:09.829Z,2.65
2019-06-01T16:46:48.556Z,2.62
2019-06-01T16:51:56.616Z,2.77
2019-06-01T16:54:29.417Z,2.47
2019-06-01T16:57:01.343Z,2.33
2019-06-01T16:59:33.369Z,2.52
2019-06-01T17:02:07.762Z,2.70
2019-06-01T17:04:39.931Z,3.05
2019-06-01T17:07:12.890Z,3.58
2019-06-01T17:09:45.216Z,3.80
2019-06-01T17:12:18.403Z,4.72
2019-06-01T17:14:50.560Z,4.78
2019-06-01T17:17:22.939Z,4.95
2019-06-01T17:19:55.170Z,4.20
2019-06-01T17:22:27.309Z,5.17
2019-06-01T17:24:59.692Z,4.30
2019-06-01T17:27:31.873Z,4.35
2019-06-01T17:30:06.952Z,4.17
2019-06-01T17:32:37.846Z,5.08
2019-06-01T17:35:29.484Z,4.55
2019-06-01T17:38:20.524Z,4.97
2019-06-01T17:40:53.468Z,4.30
2019-06-01T17:43:25.635Z,4.10
2019-06-01T17:45:57.752Z,4.05
2019-06-01T17:48:30.189Z,4.65
2019-06-01T17:51:02.621Z,4.10
2019-06-01T17:53:34.640Z,4.62
2019-06-01T17:56:08.170Z,5.05
2019-06-01T17:58:40.265Z,5.03
2019-06-01T18:01:12.548Z,4.60
2019-06-01T18:03:44.713Z,4.03
2019-06-01T18:06:16.871Z,5.22
2019-06-01T18:08:49.504Z,4.28
2019-06-01T18:11:21.652Z,5.03
2019-06-01T18:13:53.978Z,4.53
2019-06-01T18:16:26.608Z,4.78
2019-06-01T18:18:58.712Z,3.90
2019-06-01T18:21:33.456Z,4.90
2019-06-01T18:24:06.201Z,5.03
2019-06-01T18:26:38.305Z,4.65
2019-06-01T18:29:10.773Z,4.70
2019-06-01T18:31:43.044Z,4.70
2019-06-01T18:34:15.078Z,4.20
2019-06-01T18:36:47.554Z,5.47
2019-06-01T18:39:19.982Z,4.62
2019-06-01T18:41:52.148Z,4.95
2019-06-01T18:44:25.033Z,4.47
2019-06-01T18:46:57.233Z,5.20
2019-06-01T18:49:29.458Z,4.87
2019-06-01T18:52:01.737Z,4.80
2019-06-01T18:54:33.768Z,4.12
2019-06-01T18:57:12.325Z,4.12
2019-06-01T18:59:40.018Z,4.17
2019-06-01T19:02:12.614Z,4.12
2019-06-01T19:04:44.880Z,4.83
2019-06-01T19:07:17.225Z,4.53
2019-06-01T19:09:49.239Z,4.17
2019-06-01T19:12:24.416Z,5.03
2019-06-01T19:14:55.741Z,4.40
2019-06-01T19:17:28.184Z,4.53
2019-06-01T19:20:00.778Z,4.85
2019-06-01T19:22:32.739Z,4.22
2019-06-01T19:25:06.621Z,4.78
2019-06-01T19:27:39.285Z,5.28
2019-06-01T19:30:12.933Z,4.83
2019-06-01T19:32:45.645Z,4.95
2019-06-01T19:35:17.805Z,4.85
2019-06-01T19:37:50.138Z,4.95
2019-06-01T19:40:26.117Z,5.78
2019-06-01T19:42:58.066Z,4.28
2019-06-01T19:45:31.856Z,5.42
2019-06-01T19:48:04.003Z,5.05
2019-06-01T19:50:36.010Z,4.45
2019-06-01T19:53:08.782Z,5.08
2019-06-01T19:55:40.902Z,4.42
2019-06-01T19:58:14.250Z,5.83
2019-06-01T20:00:47.181Z,4.67
2019-06-01T20:03:21.943Z,4.75
2019-06-01T20:05:53.213Z,5.45
2019-06-01T20:08:25.513Z,4.70
2019-06-01T20:10:57.696Z,4.50
2019-06-01T20:13:30.062Z,4.92
2019-06-01T20:16:02.130Z,5.80
2019-06-01T20:18:53.616Z,5.15
2019-06-01T20:21:25.528Z,4.92
2019-06-01T20:23:57.279Z,5.05
2019-06-01T20:26:40.344Z,4.65
2019-06-01T20:29:03.466Z,5.35
2019-06-01T20:31:35.500Z,4.78
2019-06-01T20:34:08.215Z,5.33
2019-06-01T20:36:41.432Z,5.75
2019-06-01T20:39:14.186Z,6.08
2019-06-01T20:41:46.613Z,5.00
2019-06-01T20:44:18.857Z,5.45
2019-06-01T20:46:51.894Z,5.42
2019-06-01T20:49:24.159Z,4.90
2019-06-01T20:51:56.258Z,4.42
2019-06-01T20:54:28.235Z,5.33
2019-06-01T20:57:01.207Z,5.00
2019-06-01T20:59:33.151Z,5.40
2019-06-01T21:02:05.500Z,5.12
2019-06-01T21:04:38.109Z,5.50
2019-06-01T21:07:10.192Z,4.92
2019-06-01T21:09:42.194Z,4.53
2019-06-01T21:12:14.096Z,4.60
2019-06-01T21:14:46.095Z,4.92
2019-06-01T21:17:18.562Z,4.75
2019-06-01T21:19:50.682Z,5.28
2019-06-01T21:22:24.930Z,4.80
2019-06-01T21:24:57.493Z,5.25
2019-06-01T21:27:29.318Z,6.08
2019-06-01T21:30:01.364Z,5.37
2019-06-01T21:32:33.756Z,5.20
2019-06-01T21:35:06.799Z,5.25
2019-06-01T21:37:39.260Z,5.00
2019-06-01T21:40:12.104Z,5.10
2019-06-01T21:43:00.174Z,5.45
2019-06-01T21:45:19.426Z,4.97
2019-06-01T21:47:51.947Z,5.75
2019-06-01T21:50:24.158Z,5.60
2019-06-01T21:52:56.175Z,5.47
2019-06-01T21:55:28.596Z,5.12
2019-06-01T21:58:00.807Z,5.20
2019-06-01T22:00:36.810Z,5.85
2019-06-01T22:03:10.505Z,5.53
2019-06-01T22:05:43.036Z,4.85
2019-06-01T22:08:15.259Z,5.85
2019-06-01T22:10:47.670Z,5.92
2019-06-01T22:13:23.816Z,5.33
2019-06-01T22:15:53.524Z,5.67
2019-06-01T22:18:25.878Z,5.72
2019-06-01T22:20:57.962Z,5.83
2019-06-01T22:23:31.460Z,6.47
2019-06-01T22:26:03.614Z,5.53
2019-06-01T22:28:35.823Z,5.70
2019-06-01T22:31:08.581Z,6.62
2019-06-01T22:33:40.706Z,5.92
2019-06-01T22:36:12.637Z,6.10
2019-06-01T22:38:44.878Z,6.53
2019-06-01T22:41:17.140Z,6.00
2019-06-01T22:43:49.245Z,6.72
2019-06-01T22:46:22.364Z,7.03
2019-06-01T22:48:54.932Z,5.72
2019-06-01T22:51:27.132Z,5.90
2019-06-01T22:53:59.661Z,6.87
2019-06-01T22:56:31.883Z,7.10
2019-06-01T22:59:03.939Z,6.42
2019-06-01T23:01:35.930Z,5.35
2019-06-01T23:04:08.350Z,6.30
2019-06-01T23:06:40.464Z,6.22
2019-06-01T23:09:12.550Z,6.70
2019-06-01T23:11:44.851Z,6.58
2019-06-01T23:14:16.958Z,6.40
2019-06-01T23:16:49.305Z,6.92
2019-06-01T23:19:21.612Z,6.62
2019-06-01T23:21:54.751Z,7.85
2019-06-01T23:24:28.226Z,7.37
2019-06-01T23:27:00.622Z,6.95
2019-06-01T23:29:32.836Z,6.75
2019-06-01T23:32:05.157Z,7.85
2019-06-01T23:34:37.157Z,6.83
2019-06-01T23:37:09.063Z,6.97
2019-06-01T23:39:41.336Z,6.03
2019-06-01T23:42:13.400Z,6.28
2019-06-01T23:45:05.074Z,6.05
2019-06-01T23:47:38.423Z,6.17
2019-06-01T23:50:29.612Z,5.25
2019-06-01T23:53:13.138Z,5.67
2019-06-01T23:55:36.051Z,5.78
2019-06-01T23:58:08.070Z,5.80
